sensor_id;sensor_type;location;lat;lon;timestamp;P1;durP1;ratioP1;P2;durP2;ratioP2
75890;SDS011;64571;47.512;19.054;2023-06-22T00:01:45;17.10;;;5.22;;
75890;SDS011;64571;47.512;19.054;2023-06-22T00:04:48;11.98;;;5.85;;
75890;SDS011;64571;47.512;19.054;2023-06-22T00:07:50;15.80;;;5.47;;
75890;SDS011;64571;47.512;19.054;2023-06-22T00:10:53;12.20;;;5.50;;
75890;SDS011;64571;47.512;19.054;2023-06-22T00:13:55;11.88;;;5.20;;
75890;SDS011;64571;47.512;19.054;2023-06-22T00:16:58;15.52;;;5.72;;
75890;SDS011;64571;47.512;19.054;2023-06-22T00:20:01;13.95;;;5.87;;
75890;SDS011;64571;47.512;19.054;2023-06-22T00:23:05;16.07;;;5.90;;
75890;SDS011;64571;47.512;19.054;2023-06-22T00:26:10;13.13;;;5.43;;
75890;SDS011;64571;47.512;19.054;2023-06-22T00:29:13;15.93;;;6.07;;
75890;SDS011;64571;47.512;19.054;2023-06-22T00:32:16;13.68;;;5.68;;
75890;SDS011;64571;47.512;19.054;2023-06-22T00:35:21;13.38;;;5.87;;
75890;SDS011;64571;47.512;19.054;2023-06-22T00:38:24;16.97;;;6.20;;
75890;SDS011;64571;47.512;19.054;2023-06-22T00:41:27;15.30;;;5.75;;
75890;SDS011;64571;47.512;19.054;2023-06-22T00:44:32;14.02;;;5.60;;
75890;SDS011;64571;47.512;19.054;2023-06-22T00:47:35;12.95;;;6.37;;
75890;SDS011;64571;47.512;19.054;2023-06-22T00:50:38;11.93;;;5.20;;
75890;SDS011;64571;47.512;19.054;2023-06-22T00:53:42;17.00;;;5.50;;
75890;SDS011;64571;47.512;19.054;2023-06-22T00:56:45;11.65;;;4.97;;
75890;SDS011;64571;47.512;19.054;2023-06-22T00:59:48;9.15;;;4.85;;
75890;SDS011;64571;47.512;19.054;2023-06-22T01:02:51;10.50;;;5.00;;
75890;SDS011;64571;47.512;19.054;2023-06-22T01:05:57;11.12;;;4.97;;
75890;SDS011;64571;47.512;19.054;2023-06-22T01:12:18;10.55;;;4.40;;
75890;SDS011;64571;47.512;19.054;2023-06-22T01:15:24;10.20;;;4.60;;
75890;SDS011;64571;47.512;19.054;2023-06-22T01:18:40;10.60;;;4.55;;
75890;SDS011;64571;47.512;19.054;2023-06-22T01:21:44;13.77;;;4.25;;
75890;SDS011;64571;47.512;19.054;2023-06-22T01:24:51;11.77;;;4.37;;
75890;SDS011;64571;47.512;19.054;2023-06-22T01:31:18;10.57;;;4.68;;
75890;SDS011;64571;47.512;19.054;2023-06-22T01:34:23;12.25;;;4.93;;
75890;SDS011;64571;47.512;19.054;2023-06-22T01:37:27;10.95;;;4.32;;
75890;SDS011;64571;47.512;19.054;2023-06-22T01:40:31;12.57;;;4.67;;
75890;SDS011;64571;47.512;19.054;2023-06-22T01:43:35;11.35;;;4.57;;
75890;SDS011;64571;47.512;19.054;2023-06-22T01:46:38;10.45;;;4.93;;
75890;SDS011;64571;47.512;19.054;2023-06-22T01:49:42;12.82;;;5.37;;
75890;SDS011;64571;47.512;19.054;2023-06-22T01:52:45;8.20;;;4.35;;
75890;SDS011;64571;47.512;19.054;2023-06-22T01:55:48;13.87;;;5.67;;
75890;SDS011;64571;47.512;19.054;2023-06-22T01:58:57;11.23;;;4.53;;
75890;SDS011;64571;47.512;19.054;2023-06-22T02:02:07;10.13;;;4.30;;
75890;SDS011;64571;47.512;19.054;2023-06-22T02:05:12;16.02;;;5.57;;
75890;SDS011;64571;47.512;19.054;2023-06-22T02:08:24;10.73;;;5.15;;
75890;SDS011;64571;47.512;19.054;2023-06-22T02:11:33;14.03;;;5.20;;
75890;SDS011;64571;47.512;19.054;2023-06-22T02:14:37;17.95;;;5.55;;
75890;SDS011;64571;47.512;19.054;2023-06-22T02:17:41;12.52;;;4.72;;
75890;SDS011;64571;47.512;19.054;2023-06-22T02:20:47;14.43;;;5.45;;
75890;SDS011;64571;47.512;19.054;2023-06-22T02:23:50;11.88;;;5.45;;
75890;SDS011;64571;47.512;19.054;2023-06-22T02:26:52;14.13;;;5.57;;
75890;SDS011;64571;47.512;19.054;2023-06-22T02:29:55;13.15;;;6.05;;
75890;SDS011;64571;47.512;19.054;2023-06-22T02:32:57;11.12;;;5.60;;
75890;SDS011;64571;47.512;19.054;2023-06-22T02:36:03;15.50;;;6.55;;
75890;SDS011;64571;47.512;19.054;2023-06-22T02:39:07;15.15;;;5.68;;
75890;SDS011;64571;47.512;19.054;2023-06-22T02:42:11;12.57;;;5.27;;
75890;SDS011;64571;47.512;19.054;2023-06-22T02:45:14;17.08;;;5.82;;
75890;SDS011;64571;47.512;19.054;2023-06-22T02:48:17;17.08;;;5.95;;
75890;SDS011;64571;47.512;19.054;2023-06-22T02:51:20;10.80;;;5.60;;
75890;SDS011;64571;47.512;19.054;2023-06-22T02:54:22;13.98;;;5.90;;
75890;SDS011;64571;47.512;19.054;2023-06-22T02:57:25;13.40;;;5.70;;
75890;SDS011;64571;47.512;19.054;2023-06-22T03:00:28;12.20;;;5.28;;
75890;SDS011;64571;47.512;19.054;2023-06-22T03:03:33;13.95;;;5.53;;
75890;SDS011;64571;47.512;19.054;2023-06-22T03:06:36;10.88;;;5.30;;
75890;SDS011;64571;47.512;19.054;2023-06-22T03:09:39;13.68;;;5.43;;
75890;SDS011;64571;47.512;19.054;2023-06-22T03:12:42;15.23;;;6.30;;
75890;SDS011;64571;47.512;19.054;2023-06-22T03:15:45;10.93;;;4.60;;
75890;SDS011;64571;47.512;19.054;2023-06-22T03:18:48;15.68;;;5.28;;
75890;SDS011;64571;47.512;19.054;2023-06-22T03:21:50;15.10;;;4.68;;
75890;SDS011;64571;47.512;19.054;2023-06-22T03:24:53;18.05;;;5.32;;
75890;SDS011;64571;47.512;19.054;2023-06-22T03:27:56;14.57;;;5.47;;
75890;SDS011;64571;47.512;19.054;2023-06-22T03:30:59;10.60;;;5.03;;
75890;SDS011;64571;47.512;19.054;2023-06-22T03:34:04;14.48;;;5.05;;
75890;SDS011;64571;47.512;19.054;2023-06-22T03:37:06;11.82;;;5.07;;
75890;SDS011;64571;47.512;19.054;2023-06-22T03:40:09;11.60;;;4.90;;
75890;SDS011;64571;47.512;19.054;2023-06-22T03:43:12;14.70;;;4.87;;
75890;SDS011;64571;47.512;19.054;2023-06-22T03:46:15;13.93;;;4.68;;
75890;SDS011;64571;47.512;19.054;2023-06-22T03:49:17;16.85;;;6.15;;
75890;SDS011;64571;47.512;19.054;2023-06-22T03:52:21;14.52;;;5.78;;
75890;SDS011;64571;47.512;19.054;2023-06-22T03:55:24;11.07;;;5.28;;
75890;SDS011;64571;47.512;19.054;2023-06-22T03:58:27;12.57;;;5.43;;
75890;SDS011;64571;47.512;19.054;2023-06-22T04:01:35;11.45;;;5.55;;
75890;SDS011;64571;47.512;19.054;2023-06-22T04:04:39;15.85;;;5.57;;
75890;SDS011;64571;47.512;19.054;2023-06-22T04:07:42;15.25;;;5.87;;
75890;SDS011;64571;47.512;19.054;2023-06-22T04:10:44;19.35;;;6.00;;
75890;SDS011;64571;47.512;19.054;2023-06-22T04:13:47;12.27;;;5.53;;
75890;SDS011;64571;47.512;19.054;2023-06-22T04:16:51;17.12;;;5.82;;
75890;SDS011;64571;47.512;19.054;2023-06-22T04:19:53;15.27;;;7.43;;
75890;SDS011;64571;47.512;19.054;2023-06-22T04:22:56;19.25;;;7.10;;
75890;SDS011;64571;47.512;19.054;2023-06-22T04:25:58;16.87;;;6.03;;
75890;SDS011;64571;47.512;19.054;2023-06-22T04:29:04;19.80;;;6.20;;
75890;SDS011;64571;47.512;19.054;2023-06-22T04:32:10;16.90;;;6.90;;
75890;SDS011;64571;47.512;19.054;2023-06-22T04:35:15;17.55;;;6.37;;
75890;SDS011;64571;47.512;19.054;2023-06-22T04:38:20;16.42;;;7.18;;
75890;SDS011;64571;47.512;19.054;2023-06-22T04:41:24;14.80;;;6.78;;
75890;SDS011;64571;47.512;19.054;2023-06-22T04:44:26;16.37;;;6.77;;
75890;SDS011;64571;47.512;19.054;2023-06-22T04:47:29;15.70;;;6.68;;
75890;SDS011;64571;47.512;19.054;2023-06-22T04:50:32;16.60;;;6.30;;
75890;SDS011;64571;47.512;19.054;2023-06-22T04:53:34;21.58;;;7.22;;
75890;SDS011;64571;47.512;19.054;2023-06-22T04:56:37;12.13;;;7.10;;
75890;SDS011;64571;47.512;19.054;2023-06-22T04:59:43;13.57;;;6.23;;
75890;SDS011;64571;47.512;19.054;2023-06-22T05:02:46;13.38;;;6.43;;
75890;SDS011;64571;47.512;19.054;2023-06-22T05:05:49;18.25;;;6.00;;
75890;SDS011;64571;47.512;19.054;2023-06-22T05:08:55;14.40;;;6.10;;
75890;SDS011;64571;47.512;19.054;2023-06-22T05:12:00;11.75;;;5.12;;
75890;SDS011;64571;47.512;19.054;2023-06-22T05:15:05;12.27;;;5.50;;
75890;SDS011;64571;47.512;19.054;2023-06-22T05:18:09;17.12;;;6.85;;
75890;SDS011;64571;47.512;19.054;2023-06-22T05:21:14;16.12;;;5.68;;
75890;SDS011;64571;47.512;19.054;2023-06-22T05:24:16;16.42;;;6.47;;
75890;SDS011;64571;47.512;19.054;2023-06-22T05:27:19;15.65;;;5.60;;
75890;SDS011;64571;47.512;19.054;2023-06-22T05:30:21;14.20;;;6.80;;
75890;SDS011;64571;47.512;19.054;2023-06-22T05:33:24;14.70;;;5.85;;
75890;SDS011;64571;47.512;19.054;2023-06-22T05:36:27;12.57;;;5.57;;
75890;SDS011;64571;47.512;19.054;2023-06-22T05:39:29;17.42;;;6.00;;
75890;SDS011;64571;47.512;19.054;2023-06-22T05:42:32;19.73;;;8.23;;
75890;SDS011;64571;47.512;19.054;2023-06-22T05:45:35;13.97;;;4.80;;
75890;SDS011;64571;47.512;19.054;2023-06-22T05:48:37;15.20;;;5.95;;
75890;SDS011;64571;47.512;19.054;2023-06-22T05:51:41;16.98;;;5.78;;
75890;SDS011;64571;47.512;19.054;2023-06-22T05:54:44;12.57;;;5.60;;
75890;SDS011;64571;47.512;19.054;2023-06-22T05:57:46;22.65;;;8.75;;
75890;SDS011;64571;47.512;19.054;2023-06-22T06:00:50;16.33;;;6.00;;
75890;SDS011;64571;47.512;19.054;2023-06-22T06:03:52;16.12;;;5.37;;
75890;SDS011;64571;47.512;19.054;2023-06-22T06:06:55;13.15;;;5.32;;
75890;SDS011;64571;47.512;19.054;2023-06-22T06:09:57;10.00;;;5.00;;
75890;SDS011;64571;47.512;19.054;2023-06-22T06:13:00;17.67;;;4.82;;
75890;SDS011;64571;47.512;19.054;2023-06-22T06:16:04;12.60;;;4.63;;
75890;SDS011;64571;47.512;19.054;2023-06-22T06:19:07;9.65;;;3.95;;
75890;SDS011;64571;47.512;19.054;2023-06-22T06:22:09;13.30;;;4.80;;
75890;SDS011;64571;47.512;19.054;2023-06-22T06:25:12;13.90;;;5.35;;
75890;SDS011;64571;47.512;19.054;2023-06-22T06:28:18;11.55;;;4.60;;
75890;SDS011;64571;47.512;19.054;2023-06-22T06:31:20;10.23;;;4.07;;
75890;SDS011;64571;47.512;19.054;2023-06-22T06:34:23;15.65;;;5.80;;
75890;SDS011;64571;47.512;19.054;2023-06-22T06:37:26;12.77;;;4.15;;
75890;SDS011;64571;47.512;19.054;2023-06-22T06:40:28;12.63;;;3.85;;
75890;SDS011;64571;47.512;19.054;2023-06-22T06:43:32;17.48;;;5.03;;
75890;SDS011;64571;47.512;19.054;2023-06-22T06:46:35;10.57;;;4.40;;
75890;SDS011;64571;47.512;19.054;2023-06-22T06:49:37;12.77;;;4.60;;
75890;SDS011;64571;47.512;19.054;2023-06-22T06:52:40;13.55;;;4.10;;
75890;SDS011;64571;47.512;19.054;2023-06-22T06:55:43;14.85;;;5.53;;
75890;SDS011;64571;47.512;19.054;2023-06-22T06:58:49;11.27;;;3.65;;
75890;SDS011;64571;47.512;19.054;2023-06-22T07:01:53;14.17;;;4.00;;
75890;SDS011;64571;47.512;19.054;2023-06-22T07:04:55;19.05;;;11.57;;
75890;SDS011;64571;47.512;19.054;2023-06-22T07:08:01;12.25;;;5.45;;
75890;SDS011;64571;47.512;19.054;2023-06-22T07:11:04;10.85;;;5.03;;
75890;SDS011;64571;47.512;19.054;2023-06-22T07:14:06;18.40;;;9.93;;
75890;SDS011;64571;47.512;19.054;2023-06-22T07:17:09;15.80;;;4.80;;
75890;SDS011;64571;47.512;19.054;2023-06-22T07:20:11;11.55;;;4.45;;
75890;SDS011;64571;47.512;19.054;2023-06-22T07:23:15;12.27;;;5.70;;
75890;SDS011;64571;47.512;19.054;2023-06-22T07:26:19;11.20;;;5.30;;
75890;SDS011;64571;47.512;19.054;2023-06-22T07:29:22;9.65;;;3.92;;
75890;SDS011;64571;47.512;19.054;2023-06-22T07:32:24;14.23;;;4.73;;
75890;SDS011;64571;47.512;19.054;2023-06-22T07:35:27;16.40;;;5.35;;
75890;SDS011;64571;47.512;19.054;2023-06-22T07:38:30;11.98;;;5.05;;
75890;SDS011;64571;47.512;19.054;2023-06-22T07:41:33;9.55;;;3.70;;
75890;SDS011;64571;47.512;19.054;2023-06-22T07:44:35;17.33;;;7.15;;
75890;SDS011;64571;47.512;19.054;2023-06-22T07:47:38;14.97;;;6.23;;
75890;SDS011;64571;47.512;19.054;2023-06-22T07:50:41;11.23;;;4.22;;
75890;SDS011;64571;47.512;19.054;2023-06-22T07:53:44;16.23;;;5.30;;
75890;SDS011;64571;47.512;19.054;2023-06-22T07:56:46;13.68;;;4.12;;
75890;SDS011;64571;47.512;19.054;2023-06-22T07:59:49;10.00;;;3.83;;
75890;SDS011;64571;47.512;19.054;2023-06-22T08:02:52;13.23;;;4.10;;
75890;SDS011;64571;47.512;19.054;2023-06-22T08:05:55;12.52;;;4.25;;
75890;SDS011;64571;47.512;19.054;2023-06-22T08:08:57;13.35;;;4.22;;
75890;SDS011;64571;47.512;19.054;2023-06-22T08:12:01;12.60;;;4.18;;
75890;SDS011;64571;47.512;19.054;2023-06-22T08:15:04;17.45;;;4.75;;
75890;SDS011;64571;47.512;19.054;2023-06-22T08:18:07;12.60;;;6.23;;
75890;SDS011;64571;47.512;19.054;2023-06-22T08:21:10;12.45;;;4.65;;
75890;SDS011;64571;47.512;19.054;2023-06-22T08:24:13;17.52;;;10.10;;
75890;SDS011;64571;47.512;19.054;2023-06-22T08:27:16;16.30;;;6.72;;
75890;SDS011;64571;47.512;19.054;2023-06-22T08:30:21;21.15;;;6.70;;
75890;SDS011;64571;47.512;19.054;2023-06-22T08:33:23;16.93;;;7.30;;
75890;SDS011;64571;47.512;19.054;2023-06-22T08:36:31;14.05;;;5.28;;
75890;SDS011;64571;47.512;19.054;2023-06-22T08:39:36;11.80;;;5.62;;
75890;SDS011;64571;47.512;19.054;2023-06-22T08:42:40;13.25;;;5.72;;
75890;SDS011;64571;47.512;19.054;2023-06-22T08:45:43;14.02;;;6.75;;
75890;SDS011;64571;47.512;19.054;2023-06-22T08:48:46;16.17;;;7.23;;
75890;SDS011;64571;47.512;19.054;2023-06-22T08:51:49;12.35;;;6.75;;
75890;SDS011;64571;47.512;19.054;2023-06-22T08:54:54;11.57;;;7.40;;
75890;SDS011;64571;47.512;19.054;2023-06-22T08:57:57;20.65;;;9.35;;
75890;SDS011;64571;47.512;19.054;2023-06-22T09:00:59;17.25;;;7.40;;
75890;SDS011;64571;47.512;19.054;2023-06-22T09:04:03;16.70;;;7.83;;
75890;SDS011;64571;47.512;19.054;2023-06-22T09:07:08;12.13;;;8.02;;
75890;SDS011;64571;47.512;19.054;2023-06-22T09:10:10;14.60;;;7.87;;
75890;SDS011;64571;47.512;19.054;2023-06-22T09:13:13;12.63;;;8.43;;
75890;SDS011;64571;47.512;19.054;2023-06-22T09:16:18;12.70;;;8.25;;
75890;SDS011;64571;47.512;19.054;2023-06-22T09:19:21;16.97;;;8.07;;
75890;SDS011;64571;47.512;19.054;2023-06-22T09:22:23;13.77;;;8.98;;
75890;SDS011;64571;47.512;19.054;2023-06-22T09:25:31;14.25;;;8.90;;
75890;SDS011;64571;47.512;19.054;2023-06-22T09:28:34;12.88;;;8.85;;
75890;SDS011;64571;47.512;19.054;2023-06-22T09:31:36;17.55;;;8.48;;
75890;SDS011;64571;47.512;19.054;2023-06-22T09:34:39;18.73;;;9.17;;
75890;SDS011;64571;47.512;19.054;2023-06-22T09:37:42;14.87;;;9.20;;
75890;SDS011;64571;47.512;19.054;2023-06-22T09:40:44;17.45;;;11.70;;
75890;SDS011;64571;47.512;19.054;2023-06-22T09:43:47;17.12;;;10.05;;
75890;SDS011;64571;47.512;19.054;2023-06-22T09:46:50;15.55;;;8.82;;
75890;SDS011;64571;47.512;19.054;2023-06-22T09:49:53;18.60;;;9.23;;
75890;SDS011;64571;47.512;19.054;2023-06-22T09:52:57;13.43;;;9.23;;
75890;SDS011;64571;47.512;19.054;2023-06-22T09:56:03;13.20;;;8.50;;
75890;SDS011;64571;47.512;19.054;2023-06-22T09:59:06;15.80;;;12.30;;
75890;SDS011;64571;47.512;19.054;2023-06-22T10:02:19;15.90;;;12.27;;
75890;SDS011;64571;47.512;19.054;2023-06-22T10:05:22;19.50;;;11.53;;
75890;SDS011;64571;47.512;19.054;2023-06-22T10:08:25;16.83;;;10.23;;
75890;SDS011;64571;47.512;19.054;2023-06-22T10:11:28;14.68;;;9.93;;
75890;SDS011;64571;47.512;19.054;2023-06-22T10:14:32;15.25;;;9.20;;
75890;SDS011;64571;47.512;19.054;2023-06-22T10:17:35;16.73;;;11.48;;
75890;SDS011;64571;47.512;19.054;2023-06-22T10:20:38;23.87;;;11.50;;
75890;SDS011;64571;47.512;19.054;2023-06-22T10:23:40;16.83;;;10.27;;
75890;SDS011;64571;47.512;19.054;2023-06-22T10:26:43;13.40;;;9.32;;
75890;SDS011;64571;47.512;19.054;2023-06-22T10:29:46;16.50;;;9.55;;
75890;SDS011;64571;47.512;19.054;2023-06-22T10:32:48;13.85;;;8.98;;
75890;SDS011;64571;47.512;19.054;2023-06-22T10:35:51;18.50;;;9.67;;
75890;SDS011;64571;47.512;19.054;2023-06-22T10:38:53;19.27;;;10.13;;
75890;SDS011;64571;47.512;19.054;2023-06-22T10:41:58;16.00;;;9.40;;
75890;SDS011;64571;47.512;19.054;2023-06-22T10:45:00;13.23;;;9.48;;
75890;SDS011;64571;47.512;19.054;2023-06-22T10:48:03;15.70;;;9.30;;
75890;SDS011;64571;47.512;19.054;2023-06-22T10:51:05;18.97;;;10.27;;
75890;SDS011;64571;47.512;19.054;2023-06-22T10:54:08;16.85;;;10.32;;
75890;SDS011;64571;47.512;19.054;2023-06-22T10:57:10;16.15;;;9.82;;
75890;SDS011;64571;47.512;19.054;2023-06-22T11:00:14;13.57;;;9.52;;
75890;SDS011;64571;47.512;19.054;2023-06-22T11:03:18;17.35;;;10.30;;
75890;SDS011;64571;47.512;19.054;2023-06-22T11:06:21;16.97;;;9.93;;
75890;SDS011;64571;47.512;19.054;2023-06-22T11:09:23;15.65;;;10.27;;
75890;SDS011;64571;47.512;19.054;2023-06-22T11:12:30;13.52;;;9.75;;
75890;SDS011;64571;47.512;19.054;2023-06-22T11:15:33;14.65;;;10.65;;
75890;SDS011;64571;47.512;19.054;2023-06-22T11:18:36;17.23;;;12.63;;
75890;SDS011;64571;47.512;19.054;2023-06-22T11:21:39;17.13;;;10.20;;
75890;SDS011;64571;47.512;19.054;2023-06-22T11:24:42;19.30;;;11.07;;
75890;SDS011;64571;47.512;19.054;2023-06-22T11:27:44;15.00;;;10.48;;
75890;SDS011;64571;47.512;19.054;2023-06-22T11:30:47;19.95;;;10.15;;
75890;SDS011;64571;47.512;19.054;2023-06-22T11:33:50;21.52;;;9.77;;
75890;SDS011;64571;47.512;19.054;2023-06-22T11:36:53;16.30;;;9.07;;
75890;SDS011;64571;47.512;19.054;2023-06-22T11:39:55;13.43;;;9.48;;
75890;SDS011;64571;47.512;19.054;2023-06-22T11:43:08;17.58;;;10.23;;
75890;SDS011;64571;47.512;19.054;2023-06-22T11:46:10;14.27;;;8.85;;
75890;SDS011;64571;47.512;19.054;2023-06-22T11:49:13;17.30;;;9.93;;
75890;SDS011;64571;47.512;19.054;2023-06-22T11:52:16;20.77;;;9.80;;
75890;SDS011;64571;47.512;19.054;2023-06-22T11:55:20;15.57;;;9.52;;
75890;SDS011;64571;47.512;19.054;2023-06-22T11:58:22;15.35;;;9.82;;
75890;SDS011;64571;47.512;19.054;2023-06-22T12:01:25;17.10;;;9.73;;
75890;SDS011;64571;47.512;19.054;2023-06-22T12:04:27;16.90;;;9.70;;
75890;SDS011;64571;47.512;19.054;2023-06-22T12:07:30;20.80;;;9.57;;
75890;SDS011;64571;47.512;19.054;2023-06-22T12:10:33;12.75;;;8.50;;
75890;SDS011;64571;47.512;19.054;2023-06-22T12:13:36;18.23;;;9.38;;
75890;SDS011;64571;47.512;19.054;2023-06-22T12:16:38;14.90;;;9.25;;
75890;SDS011;64571;47.512;19.054;2023-06-22T12:19:41;13.73;;;9.90;;
75890;SDS011;64571;47.512;19.054;2023-06-22T12:22:44;22.30;;;10.07;;
75890;SDS011;64571;47.512;19.054;2023-06-22T12:25:47;17.67;;;10.13;;
75890;SDS011;64571;47.512;19.054;2023-06-22T12:28:49;16.87;;;9.20;;
75890;SDS011;64571;47.512;19.054;2023-06-22T12:31:52;16.23;;;9.52;;
75890;SDS011;64571;47.512;19.054;2023-06-22T12:34:55;20.12;;;11.02;;
75890;SDS011;64571;47.512;19.054;2023-06-22T12:37:58;39.73;;;13.00;;
75890;SDS011;64571;47.512;19.054;2023-06-22T12:41:00;15.45;;;9.93;;
75890;SDS011;64571;47.512;19.054;2023-06-22T12:44:03;19.02;;;8.82;;
75890;SDS011;64571;47.512;19.054;2023-06-22T12:47:06;12.57;;;9.40;;
75890;SDS011;64571;47.512;19.054;2023-06-22T12:50:09;16.50;;;9.88;;
75890;SDS011;64571;47.512;19.054;2023-06-22T12:53:12;31.67;;;10.40;;
75890;SDS011;64571;47.512;19.054;2023-06-22T12:56:14;17.05;;;9.80;;
75890;SDS011;64571;47.512;19.054;2023-06-22T12:59:17;18.87;;;9.90;;
75890;SDS011;64571;47.512;19.054;2023-06-22T13:02:20;22.25;;;14.20;;
75890;SDS011;64571;47.512;19.054;2023-06-22T13:05:23;15.27;;;10.55;;
75890;SDS011;64571;47.512;19.054;2023-06-22T13:08:25;17.23;;;9.53;;
75890;SDS011;64571;47.512;19.054;2023-06-22T13:11:48;15.63;;;8.48;;
75890;SDS011;64571;47.512;19.054;2023-06-22T13:14:50;13.35;;;9.15;;
75890;SDS011;64571;47.512;19.054;2023-06-22T13:17:53;18.05;;;9.52;;
75890;SDS011;64571;47.512;19.054;2023-06-22T13:20:55;15.15;;;8.93;;
75890;SDS011;64571;47.512;19.054;2023-06-22T13:24:00;14.90;;;10.33;;
75890;SDS011;64571;47.512;19.054;2023-06-22T13:27:03;15.85;;;9.93;;
75890;SDS011;64571;47.512;19.054;2023-06-22T13:30:06;14.30;;;9.18;;
75890;SDS011;64571;47.512;19.054;2023-06-22T13:33:10;16.12;;;10.30;;
75890;SDS011;64571;47.512;19.054;2023-06-22T13:36:12;16.08;;;9.50;;
75890;SDS011;64571;47.512;19.054;2023-06-22T13:39:15;15.20;;;9.63;;
75890;SDS011;64571;47.512;19.054;2023-06-22T13:42:18;15.20;;;9.05;;
75890;SDS011;64571;47.512;19.054;2023-06-22T13:45:20;16.98;;;9.52;;
75890;SDS011;64571;47.512;19.054;2023-06-22T13:48:23;15.13;;;9.48;;
75890;SDS011;64571;47.512;19.054;2023-06-22T13:51:27;14.85;;;10.43;;
75890;SDS011;64571;47.512;19.054;2023-06-22T13:54:30;15.33;;;9.00;;
75890;SDS011;64571;47.512;19.054;2023-06-22T13:57:36;35.03;;;11.23;;
75890;SDS011;64571;47.512;19.054;2023-06-22T14:00:39;18.48;;;9.68;;
75890;SDS011;64571;47.512;19.054;2023-06-22T14:03:42;20.15;;;10.57;;
75890;SDS011;64571;47.512;19.054;2023-06-22T14:06:47;16.67;;;9.18;;
75890;SDS011;64571;47.512;19.054;2023-06-22T14:09:50;20.13;;;11.03;;
75890;SDS011;64571;47.512;19.054;2023-06-22T14:12:52;11.80;;;8.95;;
75890;SDS011;64571;47.512;19.054;2023-06-22T14:15:57;18.27;;;10.27;;
75890;SDS011;64571;47.512;19.054;2023-06-22T14:19:00;16.45;;;9.70;;
75890;SDS011;64571;47.512;19.054;2023-06-22T14:22:03;15.93;;;8.27;;
75890;SDS011;64571;47.512;19.054;2023-06-22T14:25:06;14.77;;;8.20;;
75890;SDS011;64571;47.512;19.054;2023-06-22T14:28:09;16.25;;;10.10;;
75890;SDS011;64571;47.512;19.054;2023-06-22T14:31:11;17.10;;;10.45;;
75890;SDS011;64571;47.512;19.054;2023-06-22T14:34:14;12.93;;;9.35;;
75890;SDS011;64571;47.512;19.054;2023-06-22T14:37:17;12.45;;;9.15;;
75890;SDS011;64571;47.512;19.054;2023-06-22T14:40:20;13.13;;;8.57;;
75890;SDS011;64571;47.512;19.054;2023-06-22T14:43:26;15.75;;;10.05;;
75890;SDS011;64571;47.512;19.054;2023-06-22T14:46:29;19.27;;;9.82;;
75890;SDS011;64571;47.512;19.054;2023-06-22T14:49:32;15.30;;;9.70;;
75890;SDS011;64571;47.512;19.054;2023-06-22T14:52:34;13.32;;;9.52;;
75890;SDS011;64571;47.512;19.054;2023-06-22T14:55:37;16.00;;;8.97;;
75890;SDS011;64571;47.512;19.054;2023-06-22T14:58:40;15.98;;;9.45;;
75890;SDS011;64571;47.512;19.054;2023-06-22T15:01:47;14.93;;;9.60;;
75890;SDS011;64571;47.512;19.054;2023-06-22T15:04:50;14.55;;;8.73;;
75890;SDS011;64571;47.512;19.054;2023-06-22T15:07:55;17.87;;;9.70;;
75890;SDS011;64571;47.512;19.054;2023-06-22T15:11:00;12.97;;;10.20;;
75890;SDS011;64571;47.512;19.054;2023-06-22T15:14:04;14.25;;;10.00;;
75890;SDS011;64571;47.512;19.054;2023-06-22T15:17:07;15.43;;;8.68;;
75890;SDS011;64571;47.512;19.054;2023-06-22T15:20:16;14.52;;;8.70;;
75890;SDS011;64571;47.512;19.054;2023-06-22T15:23:18;18.30;;;9.23;;
75890;SDS011;64571;47.512;19.054;2023-06-22T15:26:21;16.67;;;9.60;;
75890;SDS011;64571;47.512;19.054;2023-06-22T15:29:23;15.80;;;9.23;;
75890;SDS011;64571;47.512;19.054;2023-06-22T15:32:26;16.15;;;8.73;;
75890;SDS011;64571;47.512;19.054;2023-06-22T15:35:31;15.10;;;9.25;;
75890;SDS011;64571;47.512;19.054;2023-06-22T15:38:33;11.65;;;8.40;;
75890;SDS011;64571;47.512;19.054;2023-06-22T15:41:39;16.33;;;9.30;;
75890;SDS011;64571;47.512;19.054;2023-06-22T15:44:42;13.57;;;8.50;;
75890;SDS011;64571;47.512;19.054;2023-06-22T15:47:45;15.25;;;9.25;;
75890;SDS011;64571;47.512;19.054;2023-06-22T15:50:48;14.57;;;8.38;;
75890;SDS011;64571;47.512;19.054;2023-06-22T15:53:50;22.37;;;10.30;;
75890;SDS011;64571;47.512;19.054;2023-06-22T15:56:53;14.57;;;9.67;;
75890;SDS011;64571;47.512;19.054;2023-06-22T15:59:56;18.17;;;9.25;;
75890;SDS011;64571;47.512;19.054;2023-06-22T16:02:58;14.07;;;9.05;;
75890;SDS011;64571;47.512;19.054;2023-06-22T16:06:01;16.95;;;9.18;;
75890;SDS011;64571;47.512;19.054;2023-06-22T16:09:04;13.10;;;9.00;;
75890;SDS011;64571;47.512;19.054;2023-06-22T16:12:08;15.20;;;9.40;;
75890;SDS011;64571;47.512;19.054;2023-06-22T16:15:11;16.52;;;9.70;;
75890;SDS011;64571;47.512;19.054;2023-06-22T16:18:14;15.65;;;9.48;;
75890;SDS011;64571;47.512;19.054;2023-06-22T16:21:18;17.05;;;9.35;;
75890;SDS011;64571;47.512;19.054;2023-06-22T16:24:20;22.65;;;9.70;;
75890;SDS011;64571;47.512;19.054;2023-06-22T16:27:23;12.30;;;9.20;;
75890;SDS011;64571;47.512;19.054;2023-06-22T16:30:27;16.77;;;9.43;;
75890;SDS011;64571;47.512;19.054;2023-06-22T16:33:29;26.98;;;11.52;;
75890;SDS011;64571;47.512;19.054;2023-06-22T16:36:32;13.65;;;9.38;;
75890;SDS011;64571;47.512;19.054;2023-06-22T16:39:34;14.85;;;9.48;;
75890;SDS011;64571;47.512;19.054;2023-06-22T16:42:37;14.37;;;9.53;;
75890;SDS011;64571;47.512;19.054;2023-06-22T16:45:40;13.35;;;8.80;;
75890;SDS011;64571;47.512;19.054;2023-06-22T16:48:45;15.93;;;8.70;;
75890;SDS011;64571;47.512;19.054;2023-06-22T16:51:54;13.73;;;9.85;;
75890;SDS011;64571;47.512;19.054;2023-06-22T16:54:57;13.35;;;8.10;;
75890;SDS011;64571;47.512;19.054;2023-06-22T16:58:03;21.83;;;8.07;;
75890;SDS011;64571;47.512;19.054;2023-06-22T17:01:06;15.73;;;9.40;;
75890;SDS011;64571;47.512;19.054;2023-06-22T17:04:10;14.50;;;8.68;;
75890;SDS011;64571;47.512;19.054;2023-06-22T17:07:19;15.40;;;9.13;;
75890;SDS011;64571;47.512;19.054;2023-06-22T17:10:22;16.30;;;8.90;;
75890;SDS011;64571;47.512;19.054;2023-06-22T17:13:25;20.03;;;10.40;;
75890;SDS011;64571;47.512;19.054;2023-06-22T17:16:31;14.05;;;9.30;;
75890;SDS011;64571;47.512;19.054;2023-06-22T17:19:34;20.08;;;9.00;;
75890;SDS011;64571;47.512;19.054;2023-06-22T17:22:37;18.35;;;9.15;;
75890;SDS011;64571;47.512;19.054;2023-06-22T17:25:40;16.27;;;9.05;;
75890;SDS011;64571;47.512;19.054;2023-06-22T17:28:51;19.00;;;9.27;;
75890;SDS011;64571;47.512;19.054;2023-06-22T17:32:03;14.80;;;10.10;;
75890;SDS011;64571;47.512;19.054;2023-06-22T17:35:06;13.48;;;8.95;;
75890;SDS011;64571;47.512;19.054;2023-06-22T17:38:19;14.52;;;9.10;;
75890;SDS011;64571;47.512;19.054;2023-06-22T17:41:34;16.75;;;9.23;;
75890;SDS011;64571;47.512;19.054;2023-06-22T17:44:39;13.97;;;9.53;;
75890;SDS011;64571;47.512;19.054;2023-06-22T17:47:47;19.35;;;10.00;;
75890;SDS011;64571;47.512;19.054;2023-06-22T17:50:51;16.98;;;9.40;;
75890;SDS011;64571;47.512;19.054;2023-06-22T17:53:55;16.83;;;9.38;;
75890;SDS011;64571;47.512;19.054;2023-06-22T17:56:58;18.30;;;9.50;;
75890;SDS011;64571;47.512;19.054;2023-06-22T18:00:02;17.80;;;9.83;;